sensor_id;sensor_type;location;lat;lon;timestamp;P1;durP1;ratioP1;P2;durP2;ratioP2
21657;SDS011;10990;48.174;9.782;2024-01-15T00:00:25;26.03;;;10.30;;
21657;SDS011;10990;48.174;9.782;2024-01-15T00:02:51;24.30;;;10.33;;
21657;SDS011;10990;48.174;9.782;2024-01-15T00:05:17;24.83;;;10.17;;
21657;SDS011;10990;48.174;9.782;2024-01-15T00:07:43;27.87;;;10.70;;
21657;SDS011;10990;48.174;9.782;2024-01-15T00:10:09;25.13;;;10.07;;
21657;SDS011;10990;48.174;9.782;2024-01-15T00:12:35;24.30;;;10.57;;
21657;SDS011;10990;48.174;9.782;2024-01-15T00:15:01;26.23;;;10.43;;
21657;SDS011;10990;48.174;9.782;2024-01-15T00:17:29;26.13;;;10.60;;
21657;SDS011;10990;48.174;9.782;2024-01-15T00:19:55;24.37;;;9.83;;
21657;SDS011;10990;48.174;9.782;2024-01-15T00:22:21;28.50;;;10.50;;
21657;SDS011;10990;48.174;9.782;2024-01-15T00:24:49;27.67;;;10.83;;
21657;SDS011;10990;48.174;9.782;2024-01-15T00:27:15;27.07;;;9.73;;
21657;SDS011;10990;48.174;9.782;2024-01-15T00:29:41;23.13;;;10.03;;
21657;SDS011;10990;48.174;9.782;2024-01-15T00:32:07;22.63;;;9.87;;
21657;SDS011;10990;48.174;9.782;2024-01-15T00:34:35;27.10;;;11.07;;
21657;SDS011;10990;48.174;9.782;2024-01-15T00:37:01;22.93;;;10.13;;
21657;SDS011;10990;48.174;9.782;2024-01-15T00:39:27;29.07;;;11.47;;
21657;SDS011;10990;48.174;9.782;2024-01-15T00:41:53;25.80;;;10.10;;
21657;SDS011;10990;48.174;9.782;2024-01-15T00:44:19;26.57;;;10.70;;
21657;SDS011;10990;48.174;9.782;2024-01-15T00:46:45;26.00;;;9.90;;
21657;SDS011;10990;48.174;9.782;2024-01-15T00:49:11;24.03;;;10.40;;
21657;SDS011;10990;48.174;9.782;2024-01-15T00:51:40;26.90;;;10.10;;
21657;SDS011;10990;48.174;9.782;2024-01-15T00:54:06;26.57;;;10.23;;
21657;SDS011;10990;48.174;9.782;2024-01-15T00:56:32;30.10;;;10.83;;
21657;SDS011;10990;48.174;9.782;2024-01-15T00:58:58;26.97;;;10.40;;
21657;SDS011;10990;48.174;9.782;2024-01-15T01:01:24;26.10;;;10.70;;
21657;SDS011;10990;48.174;9.782;2024-01-15T01:03:50;30.20;;;11.57;;
21657;SDS011;10990;48.174;9.782;2024-01-15T01:06:16;27.17;;;10.87;;
21657;SDS011;10990;48.174;9.782;2024-01-15T01:08:45;28.27;;;10.87;;
21657;SDS011;10990;48.174;9.782;2024-01-15T01:11:12;28.23;;;10.87;;
21657;SDS011;10990;48.174;9.782;2024-01-15T01:13:38;28.77;;;11.67;;
21657;SDS011;10990;48.174;9.782;2024-01-15T01:16:04;33.77;;;12.13;;
21657;SDS011;10990;48.174;9.782;2024-01-15T01:18:30;30.07;;;11.33;;
21657;SDS011;10990;48.174;9.782;2024-01-15T01:20:56;33.50;;;13.03;;
21657;SDS011;10990;48.174;9.782;2024-01-15T01:23:22;31.57;;;11.87;;
21657;SDS011;10990;48.174;9.782;2024-01-15T01:25:51;28.20;;;11.60;;
21657;SDS011;10990;48.174;9.782;2024-01-15T01:28:17;27.70;;;11.37;;
21657;SDS011;10990;48.174;9.782;2024-01-15T01:30:43;30.27;;;11.07;;
21657;SDS011;10990;48.174;9.782;2024-01-15T01:33:09;30.77;;;11.43;;
21657;SDS011;10990;48.174;9.782;2024-01-15T01:35:35;29.93;;;11.37;;
21657;SDS011;10990;48.174;9.782;2024-01-15T01:38:01;26.80;;;11.07;;
21657;SDS011;10990;48.174;9.782;2024-01-15T01:40:27;28.27;;;11.13;;
21657;SDS011;10990;48.174;9.782;2024-01-15T01:42:55;27.07;;;10.13;;
21657;SDS011;10990;48.174;9.782;2024-01-15T01:45:21;25.53;;;9.40;;
21657;SDS011;10990;48.174;9.782;2024-01-15T01:47:47;26.83;;;10.50;;
21657;SDS011;10990;48.174;9.782;2024-01-15T01:50:14;30.90;;;10.77;;
21657;SDS011;10990;48.174;9.782;2024-01-15T01:52:40;28.17;;;9.90;;
21657;SDS011;10990;48.174;9.782;2024-01-15T01:55:07;24.23;;;9.43;;
21657;SDS011;10990;48.174;9.782;2024-01-15T01:57:35;24.13;;;9.60;;
21657;SDS011;10990;48.174;9.782;2024-01-15T02:00:05;25.30;;;9.63;;
21657;SDS011;10990;48.174;9.782;2024-01-15T02:02:37;26.00;;;9.40;;
21657;SDS011;10990;48.174;9.782;2024-01-15T02:05:04;24.53;;;10.03;;
21657;SDS011;10990;48.174;9.782;2024-01-15T02:07:31;23.77;;;9.33;;
21657;SDS011;10990;48.174;9.782;2024-01-15T02:09:59;24.30;;;9.33;;
21657;SDS011;10990;48.174;9.782;2024-01-15T02:12:25;24.37;;;9.00;;
21657;SDS011;10990;48.174;9.782;2024-01-15T02:14:51;22.83;;;9.47;;
21657;SDS011;10990;48.174;9.782;2024-01-15T02:17:20;25.17;;;9.67;;
21657;SDS011;10990;48.174;9.782;2024-01-15T02:19:46;23.20;;;9.43;;
21657;SDS011;10990;48.174;9.782;2024-01-15T02:22:13;25.00;;;9.77;;
21657;SDS011;10990;48.174;9.782;2024-01-15T02:24:41;27.10;;;9.87;;
21657;SDS011;10990;48.174;9.782;2024-01-15T02:27:07;22.53;;;9.47;;
21657;SDS011;10990;48.174;9.782;2024-01-15T02:29:34;25.43;;;10.00;;
21657;SDS011;10990;48.174;9.782;2024-01-15T02:32:04;21.73;;;9.10;;
21657;SDS011;10990;48.174;9.782;2024-01-15T02:34:31;25.77;;;9.93;;
21657;SDS011;10990;48.174;9.782;2024-01-15T02:36:57;22.97;;;9.07;;
21657;SDS011;10990;48.174;9.782;2024-01-15T02:39:23;24.20;;;8.60;;
21657;SDS011;10990;48.174;9.782;2024-01-15T02:41:52;23.07;;;8.33;;
21657;SDS011;10990;48.174;9.782;2024-01-15T02:44:18;24.27;;;9.13;;
21657;SDS011;10990;48.174;9.782;2024-01-15T02:46:44;22.07;;;9.23;;
21657;SDS011;10990;48.174;9.782;2024-01-15T02:49:10;22.70;;;8.83;;
21657;SDS011;10990;48.174;9.782;2024-01-15T02:51:36;23.27;;;9.33;;
21657;SDS011;10990;48.174;9.782;2024-01-15T02:54:02;21.97;;;8.60;;
21657;SDS011;10990;48.174;9.782;2024-01-15T02:56:33;23.87;;;9.23;;
21657;SDS011;10990;48.174;9.782;2024-01-15T02:59:02;23.80;;;8.80;;
21657;SDS011;10990;48.174;9.782;2024-01-15T03:01:28;21.73;;;8.30;;
21657;SDS011;10990;48.174;9.782;2024-01-15T03:03:54;22.33;;;8.27;;
21657;SDS011;10990;48.174;9.782;2024-01-15T03:06:20;19.90;;;8.00;;
21657;SDS011;10990;48.174;9.782;2024-01-15T03:08:46;24.07;;;7.93;;
21657;SDS011;10990;48.174;9.782;2024-01-15T03:11:12;22.77;;;8.47;;
21657;SDS011;10990;48.174;9.782;2024-01-15T03:13:38;21.03;;;7.80;;
21657;SDS011;10990;48.174;9.782;2024-01-15T03:16:07;21.73;;;8.53;;
21657;SDS011;10990;48.174;9.782;2024-01-15T03:18:33;24.50;;;8.20;;
21657;SDS011;10990;48.174;9.782;2024-01-15T03:20:59;19.67;;;7.97;;
21657;SDS011;10990;48.174;9.782;2024-01-15T03:23:25;21.73;;;8.50;;
21657;SDS011;10990;48.174;9.782;2024-01-15T03:25:51;17.63;;;7.67;;
21657;SDS011;10990;48.174;9.782;2024-01-15T03:28:17;20.83;;;8.33;;
21657;SDS011;10990;48.174;9.782;2024-01-15T03:30:43;20.33;;;8.17;;
21657;SDS011;10990;48.174;9.782;2024-01-15T03:33:12;23.57;;;8.57;;
21657;SDS011;10990;48.174;9.782;2024-01-15T03:35:38;20.50;;;7.60;;
21657;SDS011;10990;48.174;9.782;2024-01-15T03:38:04;19.27;;;8.20;;
21657;SDS011;10990;48.174;9.782;2024-01-15T03:40:30;22.03;;;8.67;;
21657;SDS011;10990;48.174;9.782;2024-01-15T03:42:56;18.07;;;7.97;;
21657;SDS011;10990;48.174;9.782;2024-01-15T03:45:22;21.77;;;8.30;;
21657;SDS011;10990;48.174;9.782;2024-01-15T03:47:48;20.70;;;8.23;;
21657;SDS011;10990;48.174;9.782;2024-01-15T03:50:17;20.40;;;7.73;;
21657;SDS011;10990;48.174;9.782;2024-01-15T03:52:43;20.13;;;8.17;;
21657;SDS011;10990;48.174;9.782;2024-01-15T03:55:09;20.13;;;7.33;;
21657;SDS011;10990;48.174;9.782;2024-01-15T03:57:36;16.50;;;6.87;;
21657;SDS011;10990;48.174;9.782;2024-01-15T04:00:02;17.17;;;7.17;;
21657;SDS011;10990;48.174;9.782;2024-01-15T04:02:30;16.03;;;6.83;;
21657;SDS011;10990;48.174;9.782;2024-01-15T04:04:56;18.03;;;6.70;;
21657;SDS011;10990;48.174;9.782;2024-01-15T04:07:25;16.30;;;6.70;;
21657;SDS011;10990;48.174;9.782;2024-01-15T04:09:51;17.80;;;6.77;;
21657;SDS011;10990;48.174;9.782;2024-01-15T04:12:17;19.87;;;7.83;;
21657;SDS011;10990;48.174;9.782;2024-01-15T04:14:43;17.03;;;7.10;;
21657;SDS011;10990;48.174;9.782;2024-01-15T04:17:10;21.40;;;7.60;;
21657;SDS011;10990;48.174;9.782;2024-01-15T04:19:36;18.67;;;7.50;;
21657;SDS011;10990;48.174;9.782;2024-01-15T04:22:02;15.93;;;6.57;;
21657;SDS011;10990;48.174;9.782;2024-01-15T04:24:31;17.10;;;7.23;;
21657;SDS011;10990;48.174;9.782;2024-01-15T04:26:57;16.70;;;6.47;;
21657;SDS011;10990;48.174;9.782;2024-01-15T04:29:23;16.93;;;7.20;;
21657;SDS011;10990;48.174;9.782;2024-01-15T04:31:49;14.30;;;6.27;;
21657;SDS011;10990;48.174;9.782;2024-01-15T04:34:15;18.00;;;6.77;;
21657;SDS011;10990;48.174;9.782;2024-01-15T04:36:41;15.80;;;6.93;;
21657;SDS011;10990;48.174;9.782;2024-01-15T04:39:07;14.67;;;5.97;;
21657;SDS011;10990;48.174;9.782;2024-01-15T04:41:36;16.63;;;6.33;;
21657;SDS011;10990;48.174;9.782;2024-01-15T04:44:02;15.80;;;6.87;;
21657;SDS011;10990;48.174;9.782;2024-01-15T04:46:29;18.40;;;6.57;;
21657;SDS011;10990;48.174;9.782;2024-01-15T04:48:55;16.27;;;6.40;;
21657;SDS011;10990;48.174;9.782;2024-01-15T04:51:21;15.87;;;6.37;;
21657;SDS011;10990;48.174;9.782;2024-01-15T04:53:47;13.93;;;6.20;;
21657;SDS011;10990;48.174;9.782;2024-01-15T04:56:13;15.60;;;6.27;;
21657;SDS011;10990;48.174;9.782;2024-01-15T04:58:42;13.70;;;5.60;;
21657;SDS011;10990;48.174;9.782;2024-01-15T05:01:08;14.30;;;6.17;;
21657;SDS011;10990;48.174;9.782;2024-01-15T05:03:34;16.03;;;6.20;;
21657;SDS011;10990;48.174;9.782;2024-01-15T05:06:00;15.23;;;6.40;;
21657;SDS011;10990;48.174;9.782;2024-01-15T05:08:25;15.90;;;6.73;;
21657;SDS011;10990;48.174;9.782;2024-01-15T05:10:51;16.03;;;6.20;;
21657;SDS011;10990;48.174;9.782;2024-01-15T05:13:17;16.03;;;6.70;;
21657;SDS011;10990;48.174;9.782;2024-01-15T05:15:46;15.57;;;6.17;;
21657;SDS011;10990;48.174;9.782;2024-01-15T05:18:11;14.97;;;5.83;;
21657;SDS011;10990;48.174;9.782;2024-01-15T05:20:37;16.00;;;6.37;;
21657;SDS011;10990;48.174;9.782;2024-01-15T05:23:03;15.50;;;6.13;;
21657;SDS011;10990;48.174;9.782;2024-01-15T05:25:29;14.10;;;5.80;;
21657;SDS011;10990;48.174;9.782;2024-01-15T05:27:55;14.67;;;5.37;;
21657;SDS011;10990;48.174;9.782;2024-01-15T05:30:21;14.33;;;5.67;;
21657;SDS011;10990;48.174;9.782;2024-01-15T05:32:49;12.17;;;5.33;;
21657;SDS011;10990;48.174;9.782;2024-01-15T05:35:15;13.80;;;5.97;;
21657;SDS011;10990;48.174;9.782;2024-01-15T05:37:43;13.10;;;5.73;;
21657;SDS011;10990;48.174;9.782;2024-01-15T05:40:11;14.00;;;6.10;;
21657;SDS011;10990;48.174;9.782;2024-01-15T05:42:37;12.73;;;5.50;;
21657;SDS011;10990;48.174;9.782;2024-01-15T05:45:03;13.63;;;5.47;;
21657;SDS011;10990;48.174;9.782;2024-01-15T05:47:30;13.40;;;5.80;;
21657;SDS011;10990;48.174;9.782;2024-01-15T05:49:58;13.03;;;5.73;;
21657;SDS011;10990;48.174;9.782;2024-01-15T05:52:25;14.27;;;5.83;;
21657;SDS011;10990;48.174;9.782;2024-01-15T05:54:51;15.50;;;7.10;;
21657;SDS011;10990;48.174;9.782;2024-01-15T05:57:17;18.37;;;7.50;;
21657;SDS011;10990;48.174;9.782;2024-01-15T05:59:44;18.43;;;7.50;;
21657;SDS011;10990;48.174;9.782;2024-01-15T06:02:10;19.20;;;7.73;;
21657;SDS011;10990;48.174;9.782;2024-01-15T06:04:36;19.93;;;7.57;;
21657;SDS011;10990;48.174;9.782;2024-01-15T06:07:04;16.80;;;7.70;;
21657;SDS011;10990;48.174;9.782;2024-01-15T06:09:30;16.13;;;7.07;;
21657;SDS011;10990;48.174;9.782;2024-01-15T06:11:56;17.57;;;7.13;;
21657;SDS011;10990;48.174;9.782;2024-01-15T06:14:21;14.63;;;6.87;;
21657;SDS011;10990;48.174;9.782;2024-01-15T06:16:47;16.53;;;7.00;;
21657;SDS011;10990;48.174;9.782;2024-01-15T06:19:13;13.93;;;6.27;;
21657;SDS011;10990;48.174;9.782;2024-01-15T06:21:39;14.97;;;6.37;;
21657;SDS011;10990;48.174;9.782;2024-01-15T06:24:07;15.63;;;6.30;;
21657;SDS011;10990;48.174;9.782;2024-01-15T06:26:33;13.50;;;5.90;;
21657;SDS011;10990;48.174;9.782;2024-01-15T06:28:59;17.40;;;6.87;;
21657;SDS011;10990;48.174;9.782;2024-01-15T06:31:25;14.70;;;5.63;;
21657;SDS011;10990;48.174;9.782;2024-01-15T06:33:51;15.20;;;6.53;;
21657;SDS011;10990;48.174;9.782;2024-01-15T06:36:16;14.77;;;6.17;;
21657;SDS011;10990;48.174;9.782;2024-01-15T06:38:43;15.90;;;6.80;;
21657;SDS011;10990;48.174;9.782;2024-01-15T06:41:11;16.50;;;6.80;;
21657;SDS011;10990;48.174;9.782;2024-01-15T06:43:37;16.33;;;6.77;;
21657;SDS011;10990;48.174;9.782;2024-01-15T06:46:03;16.17;;;6.30;;
21657;SDS011;10990;48.174;9.782;2024-01-15T06:48:29;15.03;;;6.93;;
21657;SDS011;10990;48.174;9.782;2024-01-15T06:50:55;15.40;;;6.13;;
21657;SDS011;10990;48.174;9.782;2024-01-15T06:53:21;17.20;;;6.60;;
21657;SDS011;10990;48.174;9.782;2024-01-15T06:55:48;15.83;;;6.53;;
21657;SDS011;10990;48.174;9.782;2024-01-15T06:58:16;15.67;;;6.60;;
21657;SDS011;10990;48.174;9.782;2024-01-15T07:00:42;16.37;;;6.70;;
21657;SDS011;10990;48.174;9.782;2024-01-15T07:03:08;15.10;;;6.57;;
21657;SDS011;10990;48.174;9.782;2024-01-15T07:05:34;15.73;;;6.30;;
21657;SDS011;10990;48.174;9.782;2024-01-15T07:07:59;14.53;;;6.37;;
21657;SDS011;10990;48.174;9.782;2024-01-15T07:10:25;16.47;;;6.90;;
21657;SDS011;10990;48.174;9.782;2024-01-15T07:12:51;14.90;;;6.57;;
21657;SDS011;10990;48.174;9.782;2024-01-15T07:15:19;16.80;;;7.27;;
21657;SDS011;10990;48.174;9.782;2024-01-15T07:17:45;17.43;;;7.27;;
21657;SDS011;10990;48.174;9.782;2024-01-15T07:20:11;15.03;;;6.60;;
21657;SDS011;10990;48.174;9.782;2024-01-15T07:22:37;13.80;;;6.63;;
21657;SDS011;10990;48.174;9.782;2024-01-15T07:25:03;14.97;;;6.33;;
21657;SDS011;10990;48.174;9.782;2024-01-15T07:27:30;15.57;;;6.63;;
21657;SDS011;10990;48.174;9.782;2024-01-15T07:29:56;14.93;;;5.60;;
21657;SDS011;10990;48.174;9.782;2024-01-15T07:32:24;13.17;;;5.60;;
21657;SDS011;10990;48.174;9.782;2024-01-15T07:34:50;11.50;;;5.50;;
21657;SDS011;10990;48.174;9.782;2024-01-15T07:37:16;13.67;;;5.60;;
21657;SDS011;10990;48.174;9.782;2024-01-15T07:39:42;12.33;;;5.57;;
21657;SDS011;10990;48.174;9.782;2024-01-15T07:42:07;12.27;;;5.57;;
21657;SDS011;10990;48.174;9.782;2024-01-15T07:44:33;12.03;;;5.40;;
21657;SDS011;10990;48.174;9.782;2024-01-15T07:46:59;13.13;;;5.87;;
21657;SDS011;10990;48.174;9.782;2024-01-15T07:49:27;12.63;;;5.40;;
21657;SDS011;10990;48.174;9.782;2024-01-15T07:51:53;12.07;;;5.60;;
21657;SDS011;10990;48.174;9.782;2024-01-15T07:54:19;12.60;;;5.10;;
21657;SDS011;10990;48.174;9.782;2024-01-15T07:56:54;9.63;;;4.50;;
21657;SDS011;10990;48.174;9.782;2024-01-15T07:59:20;10.93;;;4.43;;
21657;SDS011;10990;48.174;9.782;2024-01-15T08:01:46;9.87;;;4.37;;
21657;SDS011;10990;48.174;9.782;2024-01-15T08:04:12;10.73;;;4.30;;
21657;SDS011;10990;48.174;9.782;2024-01-15T08:06:40;11.70;;;4.60;;
21657;SDS011;10990;48.174;9.782;2024-01-15T08:09:06;10.13;;;4.47;;
21657;SDS011;10990;48.174;9.782;2024-01-15T08:11:32;9.40;;;4.63;;
21657;SDS011;10990;48.174;9.782;2024-01-15T08:13:57;11.77;;;4.33;;
21657;SDS011;10990;48.174;9.782;2024-01-15T08:16:23;10.30;;;4.60;;
21657;SDS011;10990;48.174;9.782;2024-01-15T08:18:49;11.50;;;4.23;;
21657;SDS011;10990;48.174;9.782;2024-01-15T08:21:15;8.13;;;3.87;;
21657;SDS011;10990;48.174;9.782;2024-01-15T08:23:43;10.20;;;4.37;;
21657;SDS011;10990;48.174;9.782;2024-01-15T08:26:09;9.00;;;3.63;;
21657;SDS011;10990;48.174;9.782;2024-01-15T08:28:35;8.70;;;4.17;;
21657;SDS011;10990;48.174;9.782;2024-01-15T08:31:01;8.70;;;3.73;;
21657;SDS011;10990;48.174;9.782;2024-01-15T08:33:27;9.10;;;3.40;;
21657;SDS011;10990;48.174;9.782;2024-01-15T08:35:53;9.33;;;3.93;;
21657;SDS011;10990;48.174;9.782;2024-01-15T08:38:19;8.03;;;3.83;;
21657;SDS011;10990;48.174;9.782;2024-01-15T08:40:47;7.80;;;3.30;;
21657;SDS011;10990;48.174;9.782;2024-01-15T08:43:14;6.43;;;2.97;;
21657;SDS011;10990;48.174;9.782;2024-01-15T08:45:40;6.33;;;3.13;;
21657;SDS011;10990;48.174;9.782;2024-01-15T08:48:06;7.57;;;3.27;;
21657;SDS011;10990;48.174;9.782;2024-01-15T08:50:32;7.13;;;3.07;;
21657;SDS011;10990;48.174;9.782;2024-01-15T08:52:58;7.37;;;3.10;;
21657;SDS011;10990;48.174;9.782;2024-01-15T08:55:24;7.40;;;3.53;;
21657;SDS011;10990;48.174;9.782;2024-01-15T08:57:52;7.47;;;2.73;;
21657;SDS011;10990;48.174;9.782;2024-01-15T09:00:18;5.27;;;2.70;;
21657;SDS011;10990;48.174;9.782;2024-01-15T09:02:44;4.83;;;2.30;;
21657;SDS011;10990;48.174;9.782;2024-01-15T09:05:10;5.47;;;2.30;;
21657;SDS011;10990;48.174;9.782;2024-01-15T09:07:35;4.93;;;2.50;;
21657;SDS011;10990;48.174;9.782;2024-01-15T09:10:01;4.50;;;2.33;;
21657;SDS011;10990;48.174;9.782;2024-01-15T09:12:27;4.43;;;2.00;;
21657;SDS011;10990;48.174;9.782;2024-01-15T09:14:56;4.40;;;2.40;;
21657;SDS011;10990;48.174;9.782;2024-01-15T09:17:22;3.90;;;2.00;;
21657;SDS011;10990;48.174;9.782;2024-01-15T09:19:47;3.73;;;2.00;;
21657;SDS011;10990;48.174;9.782;2024-01-15T09:22:13;3.50;;;1.90;;
21657;SDS011;10990;48.174;9.782;2024-01-15T09:24:40;2.97;;;1.77;;
21657;SDS011;10990;48.174;9.782;2024-01-15T09:27:06;2.10;;;1.63;;
21657;SDS011;10990;48.174;9.782;2024-01-15T09:29:32;3.10;;;1.67;;
21657;SDS011;10990;48.174;9.782;2024-01-15T09:32:00;1.97;;;1.50;;
21657;SDS011;10990;48.174;9.782;2024-01-15T09:34:26;2.03;;;1.53;;
21657;SDS011;10990;48.174;9.782;2024-01-15T09:36:52;2.97;;;1.70;;
21657;SDS011;10990;48.174;9.782;2024-01-15T09:39:17;1.93;;;1.60;;
21657;SDS011;10990;48.174;9.782;2024-01-15T09:41:43;2.28;;;1.60;;
21657;SDS011;10990;48.174;9.782;2024-01-15T09:44:09;3.43;;;1.37;;
21657;SDS011;10990;48.174;9.782;2024-01-15T09:46:37;2.47;;;1.70;;
21657;SDS011;10990;48.174;9.782;2024-01-15T09:49:06;1.48;;;1.30;;
21657;SDS011;10990;48.174;9.782;2024-01-15T09:51:32;2.10;;;1.70;;
21657;SDS011;10990;48.174;9.782;2024-01-15T09:53:58;2.33;;;1.37;;
21657;SDS011;10990;48.174;9.782;2024-01-15T09:56:24;3.17;;;1.45;;
21657;SDS011;10990;48.174;9.782;2024-01-15T09:58:50;3.13;;;1.40;;
21657;SDS011;10990;48.174;9.782;2024-01-15T10:01:16;2.20;;;1.25;;
21657;SDS011;10990;48.174;9.782;2024-01-15T10:03:42;2.20;;;1.50;;
21657;SDS011;10990;48.174;9.782;2024-01-15T10:06:11;1.40;;;1.30;;
21657;SDS011;10990;48.174;9.782;2024-01-15T10:08:41;2.58;;;1.30;;
21657;SDS011;10990;48.174;9.782;2024-01-15T10:11:08;1.67;;;1.10;;
21657;SDS011;10990;48.174;9.782;2024-01-15T10:13:33;2.27;;;1.30;;
21657;SDS011;10990;48.174;9.782;2024-01-15T10:16:00;1.43;;;1.17;;
21657;SDS011;10990;48.174;9.782;2024-01-15T10:18:26;1.97;;;1.23;;
21657;SDS011;10990;48.174;9.782;2024-01-15T10:20:52;1.97;;;1.30;;
21657;SDS011;10990;48.174;9.782;2024-01-15T10:23:20;2.20;;;1.27;;
21657;SDS011;10990;48.174;9.782;2024-01-15T10:25:46;2.30;;;1.33;;
21657;SDS011;10990;48.174;9.782;2024-01-15T10:28:13;1.43;;;1.20;;
21657;SDS011;10990;48.174;9.782;2024-01-15T10:30:38;2.33;;;1.33;;
21657;SDS011;10990;48.174;9.782;2024-01-15T10:33:04;2.63;;;1.57;;
21657;SDS011;10990;48.174;9.782;2024-01-15T10:35:30;1.73;;;1.37;;
21657;SDS011;10990;48.174;9.782;2024-01-15T10:37:57;2.57;;;1.63;;
21657;SDS011;10990;48.174;9.782;2024-01-15T10:40:26;4.77;;;1.80;;
21657;SDS011;10990;48.174;9.782;2024-01-15T10:42:52;3.87;;;2.20;;
21657;SDS011;10990;48.174;9.782;2024-01-15T10:45:18;4.03;;;2.33;;
21657;SDS011;10990;48.174;9.782;2024-01-15T10:47:44;4.23;;;2.00;;
21657;SDS011;10990;48.174;9.782;2024-01-15T10:50:10;4.10;;;2.60;;
21657;SDS011;10990;48.174;9.782;2024-01-15T10:52:36;3.97;;;2.77;;
21657;SDS011;10990;48.174;9.782;2024-01-15T10:55:03;6.90;;;3.20;;
21657;SDS011;10990;48.174;9.782;2024-01-15T10:57:33;6.90;;;3.60;;
21657;SDS011;10990;48.174;9.782;2024-01-15T10:59:59;5.27;;;2.53;;
21657;SDS011;10990;48.174;9.782;2024-01-15T11:02:26;5.93;;;2.50;;
21657;SDS011;10990;48.174;9.782;2024-01-15T11:04:52;5.73;;;2.60;;
21657;SDS011;10990;48.174;9.782;2024-01-15T11:07:18;3.67;;;2.50;;
21657;SDS011;10990;48.174;9.782;2024-01-15T11:09:47;6.03;;;2.70;;
21657;SDS011;10990;48.174;9.782;2024-01-15T11:12:13;4.80;;;2.60;;
21657;SDS011;10990;48.174;9.782;2024-01-15T11:14:42;5.67;;;3.10;;
21657;SDS011;10990;48.174;9.782;2024-01-15T11:17:12;5.07;;;2.80;;
21657;SDS011;10990;48.174;9.782;2024-01-15T11:19:42;7.23;;;2.97;;
21657;SDS011;10990;48.174;9.782;2024-01-15T11:22:10;5.17;;;2.83;;
21657;SDS011;10990;48.174;9.782;2024-01-15T11:24:56;6.30;;;2.90;;
21657;SDS011;10990;48.174;9.782;2024-01-15T11:27:39;4.40;;;2.70;;
21657;SDS011;10990;48.174;9.782;2024-01-15T11:30:10;4.63;;;2.70;;
21657;SDS011;10990;48.174;9.782;2024-01-15T11:32:37;7.87;;;2.80;;
21657;SDS011;10990;48.174;9.782;2024-01-15T11:35:04;5.30;;;2.87;;
21657;SDS011;10990;48.174;9.782;2024-01-15T11:40:35;7.17;;;3.30;;
21657;SDS011;10990;48.174;9.782;2024-01-15T11:43:02;8.50;;;4.00;;
21657;SDS011;10990;48.174;9.782;2024-01-15T11:45:31;9.13;;;3.97;;
21657;SDS011;10990;48.174;9.782;2024-01-15T11:48:10;6.53;;;3.63;;
21657;SDS011;10990;48.174;9.782;2024-01-15T11:50:39;8.63;;;4.00;;
21657;SDS011;10990;48.174;9.782;2024-01-15T11:53:07;10.50;;;3.97;;
21657;SDS011;10990;48.174;9.782;2024-01-15T11:55:51;8.00;;;4.10;;
21657;SDS011;10990;48.174;9.782;2024-01-15T11:58:22;9.30;;;4.33;;
21657;SDS011;10990;48.174;9.782;2024-01-15T12:00:51;7.50;;;3.97;;
21657;SDS011;10990;48.174;9.782;2024-01-15T12:03:20;19.20;;;4.23;;
21657;SDS011;10990;48.174;9.782;2024-01-15T12:05:46;7.63;;;4.00;;
21657;SDS011;10990;48.174;9.782;2024-01-15T12:08:11;7.27;;;3.83;;
21657;SDS011;10990;48.174;9.782;2024-01-15T12:10:37;6.83;;;3.90;;
21657;SDS011;10990;48.174;9.782;2024-01-15T12:13:04;6.73;;;3.87;;
21657;SDS011;10990;48.174;9.782;2024-01-15T12:15:34;9.97;;;4.50;;
21657;SDS011;10990;48.174;9.782;2024-01-15T12:18:03;9.30;;;4.63;;
21657;SDS011;10990;48.174;9.782;2024-01-15T12:20:30;10.07;;;5.00;;
21657;SDS011;10990;48.174;9.782;2024-01-15T12:22:56;9.60;;;4.67;;
21657;SDS011;10990;48.174;9.782;2024-01-15T12:25:22;9.93;;;5.10;;
21657;SDS011;10990;48.174;9.782;2024-01-15T12:27:48;11.87;;;5.60;;
21657;SDS011;10990;48.174;9.782;2024-01-15T12:30:14;10.87;;;4.63;;
21657;SDS011;10990;48.174;9.782;2024-01-15T12:32:40;10.57;;;4.87;;
21657;SDS011;10990;48.174;9.782;2024-01-15T12:35:09;9.20;;;4.40;;
21657;SDS011;10990;48.174;9.782;2024-01-15T12:37:36;9.80;;;4.83;;
21657;SDS011;10990;48.174;9.782;2024-01-15T12:40:02;10.57;;;4.47;;
21657;SDS011;10990;48.174;9.782;2024-01-15T12:42:29;10.63;;;4.30;;
21657;SDS011;10990;48.174;9.782;2024-01-15T12:44:55;8.60;;;4.40;;
21657;SDS011;10990;48.174;9.782;2024-01-15T12:47:21;10.23;;;4.70;;
21657;SDS011;10990;48.174;9.782;2024-01-15T12:49:47;10.03;;;4.53;;
21657;SDS011;10990;48.174;9.782;2024-01-15T12:52:18;8.40;;;4.07;;
21657;SDS011;10990;48.174;9.782;2024-01-15T12:54:44;11.03;;;4.77;;
21657;SDS011;10990;48.174;9.782;2024-01-15T12:57:10;8.80;;;4.33;;
21657;SDS011;10990;48.174;9.782;2024-01-15T12:59:36;9.17;;;4.37;;
21657;SDS011;10990;48.174;9.782;2024-01-15T13:02:02;11.27;;;4.50;;
21657;SDS011;10990;48.174;9.782;2024-01-15T13:04:28;10.67;;;4.90;;
21657;SDS011;10990;48.174;9.782;2024-01-15T13:06:54;13.00;;;5.50;;
21657;SDS011;10990;48.174;9.782;2024-01-15T13:09:22;11.80;;;4.97;;
21657;SDS011;10990;48.174;9.782;2024-01-15T13:11:48;11.33;;;5.37;;
21657;SDS011;10990;48.174;9.782;2024-01-15T13:14:14;11.37;;;5.50;;
21657;SDS011;10990;48.174;9.782;2024-01-15T13:16:40;10.97;;;5.30;;
21657;SDS011;10990;48.174;9.782;2024-01-15T13:19:06;12.00;;;5.40;;
21657;SDS011;10990;48.174;9.782;2024-01-15T13:21:31;11.30;;;5.27;;
21657;SDS011;10990;48.174;9.782;2024-01-15T13:23:57;12.07;;;5.70;;
21657;SDS011;10990;48.174;9.782;2024-01-15T13:26:26;12.23;;;5.70;;
21657;SDS011;10990;48.174;9.782;2024-01-15T13:28:51;10.23;;;5.37;;
21657;SDS011;10990;48.174;9.782;2024-01-15T13:31:18;11.37;;;4.90;;
21657;SDS011;10990;48.174;9.782;2024-01-15T13:33:44;12.13;;;5.63;;
21657;SDS011;10990;48.174;9.782;2024-01-15T13:36:10;9.60;;;4.60;;
21657;SDS011;10990;48.174;9.782;2024-01-15T13:38:36;11.47;;;5.37;;
21657;SDS011;10990;48.174;9.782;2024-01-15T13:41:02;11.60;;;5.03;;
21657;SDS011;10990;48.174;9.782;2024-01-15T13:43:30;10.83;;;4.83;;
21657;SDS011;10990;48.174;9.782;2024-01-15T13:45:56;9.23;;;4.53;;
21657;SDS011;10990;48.174;9.782;2024-01-15T13:48:22;9.27;;;4.50;;
21657;SDS011;10990;48.174;9.782;2024-01-15T13:50:48;8.40;;;4.33;;
21657;SDS011;10990;48.174;9.782;2024-01-15T13:53:14;8.20;;;4.03;;
21657;SDS011;10990;48.174;9.782;2024-01-15T13:55:40;7.77;;;3.77;;
21657;SDS011;10990;48.174;9.782;2024-01-15T13:58:05;7.67;;;3.90;;
21657;SDS011;10990;48.174;9.782;2024-01-15T14:00:34;7.83;;;3.50;;
21657;SDS011;10990;48.174;9.782;2024-01-15T14:02:59;7.17;;;3.67;;
21657;SDS011;10990;48.174;9.782;2024-01-15T14:05:25;7.10;;;3.53;;
21657;SDS011;10990;48.174;9.782;2024-01-15T14:07:51;6.93;;;3.20;;
21657;SDS011;10990;48.174;9.782;2024-01-15T14:10:17;5.47;;;3.00;;
21657;SDS011;10990;48.174;9.782;2024-01-15T14:12:43;6.03;;;3.30;;
21657;SDS011;10990;48.174;9.782;2024-01-15T14:15:08;4.37;;;2.60;;
21657;SDS011;10990;48.174;9.782;2024-01-15T14:17:37;8.00;;;2.93;;
21657;SDS011;10990;48.174;9.782;2024-01-15T14:20:03;4.63;;;2.50;;
21657;SDS011;10990;48.174;9.782;2024-01-15T14:22:30;5.20;;;2.43;;
21657;SDS011;10990;48.174;9.782;2024-01-15T14:24:56;4.17;;;2.50;;
21657;SDS011;10990;48.174;9.782;2024-01-15T14:27:22;3.70;;;2.37;;
21657;SDS011;10990;48.174;9.782;2024-01-15T14:29:48;5.07;;;2.57;;
21657;SDS011;10990;48.174;9.782;2024-01-15T14:32:14;4.80;;;2.53;;
21657;SDS011;10990;48.174;9.782;2024-01-15T14:34:42;5.30;;;2.60;;
21657;SDS011;10990;48.174;9.782;2024-01-15T14:37:08;4.80;;;2.80;;